createdAt,value
2022-08-09T00:00:37.007Z,23.42
2022-08-09T00:04:06.166Z,23.40
2022-08-09T00:06:34.005Z,23.44
2022-08-09T00:09:19.422Z,23.16
2022-08-09T00:12:05.679Z,23.25
2022-08-09T00:14:54.449Z,23.22
2022-08-09T00:18:10.331Z,22.96
2022-08-09T00:20:50.113Z,22.42
2022-08-09T00:23:55.325Z,22.76
2022-08-09T00:26:39.623Z,22.78
2022-08-09T00:29:39.570Z,22.83
2022-08-09T00:32:29.792Z,22.81
2022-08-09T00:35:13.932Z,22.86
2022-08-09T00:37:58.341Z,22.80
2022-08-09T00:40:52.624Z,22.54
2022-08-09T00:44:16.793Z,22.47
2022-08-09T00:46:55.804Z,22.64
2022-08-09T00:49:43.766Z,22.55
2022-08-09T00:52:38.722Z,22.69
2022-08-09T00:55:54.264Z,22.45
2022-08-09T00:58:27.634Z,22.70
2022-08-09T01:01:16.632Z,22.76
2022-08-09T01:04:08.050Z,22.99
2022-08-09T01:07:05.349Z,23.07
2022-08-09T01:10:00.689Z,23.14
2022-08-09T01:12:52.704Z,23.00
2022-08-09T01:15:52.061Z,22.70
2022-08-09T01:18:38.599Z,22.92
2022-08-09T01:21:44.601Z,22.71
2022-08-09T01:24:50.470Z,22.66
2022-08-09T01:27:41.265Z,22.49
2022-08-09T01:30:33.652Z,22.50
2022-08-09T01:33:22.921Z,22.62
2022-08-09T01:36:10.372Z,22.64
2022-08-09T01:38:58.219Z,22.55
2022-08-09T01:41:53.556Z,22.48
2022-08-09T01:44:46.056Z,22.45
2022-08-09T01:47:32.149Z,22.38
2022-08-09T01:50:36.902Z,22.47
2022-08-09T01:53:29.033Z,22.12
2022-08-09T01:56:20.979Z,22.09
2022-08-09T01:59:10.421Z,22.27
2022-08-09T02:02:00.184Z,22.01
2022-08-09T02:04:45.883Z,21.98
2022-08-09T02:08:40.327Z,22.10
2022-08-09T02:10:40.518Z,21.92
2022-08-09T02:13:40.445Z,22.03
2022-08-09T02:16:33.879Z,22.06
2022-08-09T02:19:34.982Z,22.17
2022-08-09T02:22:35.694Z,22.12
2022-08-09T02:25:24.479Z,22.20
2022-08-09T02:28:17.920Z,21.93
2022-08-09T02:31:06.160Z,22.01
2022-08-09T02:34:06.650Z,22.07
2022-08-09T02:37:01.487Z,22.13
2022-08-09T02:39:55.368Z,21.81
2022-08-09T02:42:51.165Z,22.04
2022-08-09T02:45:41.701Z,21.90
2022-08-09T02:48:31.091Z,21.82
2022-08-09T02:51:21.754Z,21.77
2022-08-09T02:54:12.405Z,21.76
2022-08-09T02:57:01.931Z,21.82
2022-08-09T03:00:26.126Z,21.82
2022-08-09T03:03:08.604Z,21.84
2022-08-09T03:05:58.167Z,21.51
2022-08-09T03:08:45.495Z,21.64
2022-08-09T03:12:06.716Z,21.70
2022-08-09T03:14:37.109Z,21.77
2022-08-09T03:17:27.038Z,21.87
2022-08-09T03:20:12.609Z,21.89
2022-08-09T03:22:58.307Z,21.81
2022-08-09T03:26:03.583Z,21.88
2022-08-09T03:28:55.055Z,21.70
2022-08-09T03:31:42.663Z,21.79
2022-08-09T03:34:44.392Z,21.82
2022-08-09T03:37:55.814Z,21.82
2022-08-09T03:40:36.210Z,22.03
2022-08-09T03:43:20.428Z,22.02
2022-08-09T03:46:20.003Z,22.14
2022-08-09T03:49:08.827Z,22.07
2022-08-09T03:52:00.301Z,22.34
2022-08-09T03:54:50.960Z,22.33
2022-08-09T03:57:35.034Z,22.50
2022-08-09T04:00:39.081Z,22.57
2022-08-09T04:03:46.367Z,22.69
2022-08-09T04:06:30.567Z,22.58
2022-08-09T04:09:41.999Z,22.77
2022-08-09T04:12:34.889Z,22.80
2022-08-09T04:15:39.157Z,22.76
2022-08-09T04:18:25.303Z,22.70
2022-08-09T04:21:10.417Z,23.03
2022-08-09T04:23:57.671Z,22.86
2022-08-09T04:26:41.921Z,22.80
2022-08-09T04:29:25.772Z,23.00
2022-08-09T04:32:14.015Z,22.82
2022-08-09T04:35:01.059Z,23.35
2022-08-09T04:37:46.999Z,23.32
2022-08-09T04:40:48.346Z,23.40
2022-08-09T04:43:49.868Z,23.49
2022-08-09T04:46:59.204Z,23.31
2022-08-09T04:49:54.193Z,23.64
2022-08-09T04:52:40.820Z,23.74
2022-08-09T04:55:24.879Z,23.64
2022-08-09T04:58:09.284Z,23.51
2022-08-09T05:00:54.493Z,23.56
2022-08-09T05:03:43.266Z,23.62
2022-08-09T05:06:29.826Z,23.62
2022-08-09T05:09:21.599Z,23.47
2022-08-09T05:12:06.286Z,23.68
2022-08-09T05:14:50.306Z,23.68
2022-08-09T05:18:39.414Z,24.08
2022-08-09T05:20:38.919Z,24.47
2022-08-09T05:24:00.998Z,24.28
2022-08-09T05:26:36.776Z,24.71
2022-08-09T05:29:31.556Z,25.00
2022-08-09T05:32:15.909Z,25.05
2022-08-09T05:35:00.231Z,25.04
2022-08-09T05:37:47.629Z,25.14
2022-08-09T05:40:31.920Z,25.30
2022-08-09T05:43:17.225Z,25.43
2022-08-09T05:46:01.712Z,25.64
2022-08-09T05:48:48.679Z,25.78
2022-08-09T05:51:46.359Z,25.90
2022-08-09T05:54:30.587Z,26.13
2022-08-09T05:57:17.610Z,26.45
2022-08-09T06:00:07.625Z,26.46
2022-08-09T06:02:57.828Z,26.59
2022-08-09T06:05:54.834Z,26.89
2022-08-09T06:08:44.879Z,26.97
2022-08-09T06:11:40.963Z,27.26
2022-08-09T06:14:40.682Z,27.33
2022-08-09T06:17:26.159Z,27.30
2022-08-09T06:20:23.432Z,27.44
2022-08-09T06:23:08.496Z,27.51
2022-08-09T06:25:56.376Z,27.77
2022-08-09T06:28:43.299Z,27.83
2022-08-09T06:31:31.385Z,28.25
2022-08-09T06:34:26.389Z,28.43
2022-08-09T06:37:14.820Z,28.06
2022-08-09T06:40:01.268Z,28.21
2022-08-09T06:42:49.746Z,28.40
2022-08-09T06:46:07.814Z,27.85
2022-08-09T06:48:42.549Z,27.90
2022-08-09T06:51:28.489Z,28.18
2022-08-09T06:54:14.818Z,28.09
2022-08-09T06:56:59.284Z,28.32
2022-08-09T07:00:50.509Z,28.76
2022-08-09T07:02:50.796Z,29.05
2022-08-09T07:06:02.443Z,28.93
2022-08-09T07:08:40.824Z,29.16
2022-08-09T07:11:25.635Z,29.05
2022-08-09T07:14:09.830Z,29.47
2022-08-09T07:16:58.052Z,29.43
2022-08-09T07:19:42.629Z,29.39
2022-08-09T07:22:34.591Z,29.41
2022-08-09T07:25:21.925Z,29.36
2022-08-09T07:28:07.227Z,29.70
2022-08-09T07:30:54.127Z,29.83
2022-08-09T07:33:52.207Z,30.07
2022-08-09T07:36:41.012Z,29.74
2022-08-09T07:39:40.405Z,29.92
2022-08-09T07:42:32.701Z,29.93
2022-08-09T07:45:36.841Z,30.19
2022-08-09T07:48:22.537Z,30.30
2022-08-09T07:52:05.358Z,30.54
2022-08-09T07:54:19.251Z,30.65
2022-08-09T07:57:12.184Z,30.72
2022-08-09T08:00:03.447Z,30.79
2022-08-09T08:02:56.082Z,30.89
2022-08-09T08:05:53.865Z,31.05
2022-08-09T08:09:01.960Z,31.09
2022-08-09T08:12:24.303Z,31.66
2022-08-09T08:14:49.613Z,31.48
2022-08-09T08:17:55.234Z,31.48
2022-08-09T08:20:39.784Z,31.34
2022-08-09T08:23:27.340Z,31.15
2022-08-09T08:26:11.707Z,31.56
2022-08-09T08:28:56.941Z,31.64
2022-08-09T08:32:02.573Z,31.84
2022-08-09T08:34:46.665Z,31.99
2022-08-09T08:37:41.912Z,32.28
2022-08-09T08:40:40.242Z,32.51
2022-08-09T08:43:26.492Z,32.35
2022-08-09T08:46:32.420Z,32.24
2022-08-09T08:49:19.243Z,32.78
2022-08-09T08:52:10.276Z,32.49
2022-08-09T08:54:55.659Z,32.50
2022-08-09T08:57:39.578Z,32.52
2022-08-09T09:00:27.684Z,32.55
2022-08-09T09:03:23.128Z,32.83
2022-08-09T09:06:18.782Z,32.53
2022-08-09T09:09:20.990Z,32.86
2022-08-09T09:12:16.725Z,32.67
2022-08-09T09:15:02.271Z,32.83
2022-08-09T09:17:53.043Z,32.99
2022-08-09T09:20:38.826Z,33.00
2022-08-09T09:23:49.935Z,33.18
2022-08-09T09:26:55.994Z,33.02
2022-08-09T09:30:08.446Z,33.17
2022-08-09T09:33:02.763Z,33.55
2022-08-09T09:36:01.947Z,33.77
2022-08-09T09:38:50.315Z,33.44
2022-08-09T09:41:49.061Z,33.65
2022-08-09T09:44:35.844Z,34.07
2022-08-09T09:47:21.768Z,33.88
2022-08-09T09:50:14.987Z,33.71
2022-08-09T09:53:01.634Z,33.90
2022-08-09T09:56:04.563Z,33.70
2022-08-09T09:58:50.328Z,33.63
2022-08-09T10:01:40.890Z,33.86
2022-08-09T10:04:30.923Z,33.82
2022-08-09T10:07:26.903Z,33.50
2022-08-09T10:10:13.972Z,34.08
2022-08-09T10:13:02.863Z,33.95
2022-08-09T10:16:09.536Z,33.63
2022-08-09T10:18:56.908Z,33.66
2022-08-09T10:21:49.060Z,34.23
2022-08-09T10:24:35.986Z,34.43
2022-08-09T10:27:24.761Z,34.33
2022-08-09T10:34:04.828Z,33.81
2022-08-09T10:36:24.589Z,33.68
2022-08-09T10:39:15.423Z,33.46
2022-08-09T10:42:00.393Z,33.75
2022-08-09T10:44:51.456Z,34.34
2022-08-09T10:48:16.476Z,34.42
2022-08-09T10:51:13.742Z,34.34
2022-08-09T10:54:05.993Z,34.37
2022-08-09T10:57:09.314Z,34.12
2022-08-09T10:59:53.852Z,34.20
2022-08-09T11:03:11.076Z,34.14
2022-08-09T11:06:25.483Z,33.96
2022-08-09T11:09:15.756Z,34.42
2022-08-09T11:12:15.070Z,34.66
2022-08-09T11:15:03.065Z,34.53
2022-08-09T11:17:53.771Z,34.44
2022-08-09T11:20:49.716Z,35.18
2022-08-09T11:24:04.161Z,35.11
2022-08-09T11:26:54.550Z,34.90
2022-08-09T11:30:03.980Z,34.72
2022-08-09T11:32:50.896Z,35.01
2022-08-09T11:35:50.387Z,34.51
2022-08-09T11:38:41.462Z,34.60
2022-08-09T11:41:37.625Z,34.38
2022-08-09T11:44:44.709Z,34.67
2022-08-09T11:47:47.274Z,35.08
2022-08-09T11:50:54.186Z,35.56
2022-08-09T11:53:59.318Z,36.05
2022-08-09T11:56:48.141Z,36.42
2022-08-09T11:59:33.730Z,36.13
2022-08-09T12:02:37.350Z,34.96
2022-08-09T12:05:23.026Z,35.20
2022-08-09T12:08:12.529Z,34.96
2022-08-09T12:11:12.753Z,34.99
2022-08-09T12:14:09.289Z,35.23
2022-08-09T12:16:56.296Z,35.47
2022-08-09T12:19:42.810Z,35.22
2022-08-09T12:22:27.678Z,35.26
2022-08-09T12:25:15.237Z,35.11
2022-08-09T12:29:15.302Z,35.51
2022-08-09T12:31:59.163Z,34.97
2022-08-09T12:34:34.564Z,35.48
2022-08-09T12:37:23.481Z,35.90
2022-08-09T12:40:11.209Z,34.85
2022-08-09T12:42:57.012Z,35.06
2022-08-09T12:45:43.735Z,35.19
2022-08-09T12:48:44.795Z,35.33
2022-08-09T12:51:52.578Z,35.40
2022-08-09T12:56:12.475Z,36.15
2022-08-09T12:57:54.849Z,35.17
2022-08-09T13:00:47.586Z,35.31
2022-08-09T13:03:53.861Z,35.31
2022-08-09T13:06:42.957Z,35.14
2022-08-09T13:09:30.707Z,35.49
2022-08-09T13:12:14.675Z,35.30
2022-08-09T13:15:08.351Z,35.10
2022-08-09T13:18:05.224Z,35.41
2022-08-09T13:22:34.282Z,35.56
2022-08-09T13:24:17.100Z,35.53
2022-08-09T13:27:06.933Z,35.00
2022-08-09T13:30:04.003Z,34.63
2022-08-09T13:32:59.420Z,34.94
2022-08-09T13:36:39.296Z,34.91
2022-08-09T13:38:55.886Z,35.02
2022-08-09T13:41:57.643Z,35.47
2022-08-09T13:44:45.846Z,35.63
2022-08-09T13:47:48.979Z,35.54
2022-08-09T13:50:35.903Z,34.94
2022-08-09T13:53:19.892Z,34.85
2022-08-09T13:56:21.356Z,34.95
2022-08-09T13:59:09.775Z,35.08
2022-08-09T14:02:01.476Z,34.84
2022-08-09T14:04:49.374Z,35.03
2022-08-09T14:07:45.053Z,34.95
2022-08-09T14:10:46.336Z,34.89
2022-08-09T14:14:22.451Z,35.13
2022-08-09T14:16:38.675Z,34.97
2022-08-09T14:19:24.507Z,35.18
2022-08-09T14:22:09.088Z,35.27
2022-08-09T14:24:54.799Z,34.82
2022-08-09T14:27:57.150Z,34.69
2022-08-09T14:30:42.993Z,34.99
2022-08-09T14:33:27.196Z,34.97
2022-08-09T14:36:19.727Z,35.39
2022-08-09T14:39:08.735Z,35.48
2022-08-09T14:41:54.330Z,35.32
2022-08-09T14:44:48.966Z,35.46
2022-08-09T14:47:49.637Z,34.75
2022-08-09T14:50:43.085Z,34.64
2022-08-09T14:53:29.818Z,34.87
2022-08-09T14:56:15.578Z,35.05
2022-08-09T14:59:00.937Z,34.91
2022-08-09T15:01:44.830Z,34.47
2022-08-09T15:04:31.163Z,34.45
2022-08-09T15:07:15.226Z,34.31
2022-08-09T15:10:07.504Z,34.23
2022-08-09T15:12:55.530Z,33.70
2022-08-09T15:15:43.676Z,34.37
2022-08-09T15:18:27.820Z,34.27
2022-08-09T15:21:54.854Z,34.10
2022-08-09T15:24:24.198Z,34.07
2022-08-09T15:27:11.297Z,34.36
2022-08-09T15:30:59.255Z,34.14
2022-08-09T15:33:00.550Z,34.22
2022-08-09T15:36:01.644Z,34.42
2022-08-09T15:38:46.361Z,34.18
2022-08-09T15:41:32.486Z,34.04
2022-08-09T15:44:16.540Z,33.75
2022-08-09T15:47:03.826Z,33.71
2022-08-09T15:50:03.606Z,33.90
2022-08-09T15:52:54.964Z,34.00
2022-08-09T15:56:10.890Z,33.95
2022-08-09T15:58:54.524Z,33.97
2022-08-09T16:01:38.496Z,33.87
2022-08-09T16:04:23.431Z,33.75
2022-08-09T16:07:14.239Z,33.78
2022-08-09T16:10:04.870Z,34.00
2022-08-09T16:12:50.257Z,33.87
2022-08-09T16:16:04.604Z,33.71
2022-08-09T16:18:44.863Z,33.55
2022-08-09T16:21:31.798Z,33.70
2022-08-09T16:24:32.998Z,33.45
2022-08-09T16:27:18.157Z,33.56
2022-08-09T16:30:02.703Z,33.47
2022-08-09T16:33:08.162Z,33.28
2022-08-09T16:35:57.210Z,33.02
2022-08-09T16:38:44.857Z,33.25
2022-08-09T16:42:02.237Z,32.87
2022-08-09T16:44:40.771Z,32.68
2022-08-09T16:48:38.346Z,32.40
2022-08-09T16:50:33.866Z,32.48
2022-08-09T16:53:18.748Z,32.38
2022-08-09T16:56:10.281Z,32.01
2022-08-09T16:58:56.036Z,32.00
2022-08-09T17:01:43.859Z,31.97
2022-08-09T17:04:34.533Z,31.59
2022-08-09T17:08:43.600Z,31.64
2022-08-09T17:10:23.807Z,31.51
2022-08-09T17:13:07.652Z,31.56
2022-08-09T17:16:00.026Z,31.23
2022-08-09T17:18:45.926Z,31.11
2022-08-09T17:21:32.054Z,30.69
2022-08-09T17:24:20.645Z,30.58
2022-08-09T17:27:11.960Z,30.36
2022-08-09T17:29:59.089Z,30.05
2022-08-09T17:32:45.540Z,29.59
2022-08-09T17:35:31.151Z,29.43
2022-08-09T17:38:31.026Z,29.31
2022-08-09T17:41:19.452Z,29.15
2022-08-09T17:44:38.118Z,29.03
2022-08-09T17:47:10.432Z,28.75
2022-08-09T17:50:04.014Z,28.45
2022-08-09T17:52:55.072Z,28.31
2022-08-09T17:55:49.273Z,28.06
2022-08-09T17:58:33.631Z,27.76
2022-08-09T18:01:23.228Z,27.78
2022-08-09T18:04:07.665Z,27.49
2022-08-09T18:06:55.754Z,27.54
2022-08-09T18:09:41.463Z,27.43
2022-08-09T18:12:30.111Z,27.50
2022-08-09T18:15:50.299Z,27.70
2022-08-09T18:18:32.524Z,27.52
2022-08-09T18:21:23.543Z,27.57
2022-08-09T18:24:14.431Z,27.36
2022-08-09T18:27:01.034Z,27.44
2022-08-09T18:30:40.039Z,27.58
2022-08-09T18:32:54.245Z,27.54
2022-08-09T18:35:58.356Z,27.37
2022-08-09T18:38:42.629Z,27.31
2022-08-09T18:41:27.868Z,27.38
2022-08-09T18:44:13.641Z,27.35
2022-08-09T18:47:08.470Z,27.38
2022-08-09T18:50:02.842Z,27.38
2022-08-09T18:52:50.805Z,27.31
2022-08-09T18:55:56.489Z,27.30
2022-08-09T18:58:40.175Z,27.19
2022-08-09T19:01:24.132Z,27.18
2022-08-09T19:04:09.022Z,27.17
2022-08-09T19:06:52.831Z,27.21
2022-08-09T19:10:14.867Z,27.26
2022-08-09T19:12:41.369Z,26.89
2022-08-09T19:15:30.962Z,27.06
2022-08-09T19:18:16.974Z,27.09
2022-08-09T19:21:02.597Z,27.08
2022-08-09T19:24:32.489Z,26.92
2022-08-09T19:26:51.707Z,27.05
2022-08-09T19:29:38.199Z,26.91
2022-08-09T19:32:41.273Z,26.74
2022-08-09T19:35:26.718Z,26.90
2022-08-09T19:38:10.641Z,26.87
2022-08-09T19:40:54.925Z,26.80
2022-08-09T19:44:00.593Z,26.92
2022-08-09T19:46:50.478Z,26.95
2022-08-09T19:50:07.382Z,26.89
2022-08-09T19:52:51.741Z,26.43
2022-08-09T19:56:02.994Z,26.72
2022-08-09T19:58:40.488Z,26.55
2022-08-09T20:02:03.190Z,26.54
2022-08-09T20:04:47.546Z,26.56
2022-08-09T20:07:58.838Z,26.26
2022-08-09T20:10:40.812Z,26.08
2022-08-09T20:13:27.628Z,26.29
2022-08-09T20:16:37.360Z,26.13
2022-08-09T20:19:48.750Z,26.35
2022-08-09T20:22:32.247Z,25.97
2022-08-09T20:25:22.713Z,25.90
2022-08-09T20:28:06.861Z,26.15
2022-08-09T20:30:51.044Z,25.88
2022-08-09T20:33:39.071Z,25.93
2022-08-09T20:36:27.274Z,26.00
2022-08-09T20:39:29.094Z,25.77
2022-08-09T20:42:16.550Z,25.71
2022-08-09T20:45:57.474Z,25.90
2022-08-09T20:48:06.530Z,26.00
2022-08-09T20:50:57.896Z,26.01
2022-08-09T20:53:42.256Z,25.89
2022-08-09T20:56:28.383Z,26.04
2022-08-09T20:59:16.797Z,26.17
2022-08-09T21:02:01.414Z,26.10
2022-08-09T21:05:54.408Z,26.17
2022-08-09T21:07:49.194Z,26.36
2022-08-09T21:10:35.634Z,26.30
2022-08-09T21:13:21.392Z,26.12
2022-08-09T21:16:19.147Z,26.25
2022-08-09T21:20:05.069Z,26.37
2022-08-09T21:22:35.789Z,26.42
2022-08-09T21:25:37.638Z,26.39
2022-08-09T21:28:33.477Z,26.47
2022-08-09T21:31:19.895Z,26.52
2022-08-09T21:34:05.606Z,26.45
2022-08-09T21:36:55.731Z,26.20
2022-08-09T21:39:42.023Z,26.38
2022-08-09T21:42:28.650Z,26.10
2022-08-09T21:45:15.813Z,26.19
2022-08-09T21:48:01.930Z,25.83
2022-08-09T21:50:49.689Z,25.94
2022-08-09T21:53:40.653Z,25.99
2022-08-09T21:56:34.055Z,25.59
2022-08-09T21:59:28.705Z,25.54
2022-08-09T22:02:36.383Z,25.58
2022-08-09T22:05:23.403Z,25.35
2022-08-09T22:08:12.941Z,25.45
2022-08-09T22:11:50.355Z,24.98
2022-08-09T22:14:02.422Z,24.79
2022-08-09T22:16:46.368Z,25.01
2022-08-09T22:19:58.605Z,24.76
2022-08-09T22:22:37.995Z,24.63
2022-08-09T22:26:05.281Z,24.60
2022-08-09T22:28:29.657Z,24.51
2022-08-09T22:31:17.056Z,24.25
2022-08-09T22:34:00.946Z,24.56
2022-08-09T22:36:46.741Z,24.35
2022-08-09T22:39:57.781Z,24.31
2022-08-09T22:42:34.650Z,24.15
2022-08-09T22:48:14.399Z,24.12
2022-08-09T22:48:35.214Z,24.21
2022-08-09T22:51:23.942Z,24.12
2022-08-09T22:54:11.042Z,24.02
2022-08-09T22:56:57.213Z,23.84
2022-08-09T22:59:56.801Z,23.93
2022-08-09T23:02:45.010Z,23.86
2022-08-09T23:05:30.778Z,23.82
2022-08-09T23:08:34.585Z,23.74
2022-08-09T23:11:21.809Z,23.86
2022-08-09T23:14:09.862Z,23.24
2022-08-09T23:17:01.005Z,23.73
2022-08-09T23:20:07.267Z,23.63
2022-08-09T23:22:49.255Z,23.46
2022-08-09T23:25:33.349Z,23.56
2022-08-09T23:28:18.789Z,23.55
2022-08-09T23:31:03.121Z,23.30
2022-08-09T23:33:47.154Z,23.22
2022-08-09T23:36:31.500Z,23.12
2022-08-09T23:39:15.571Z,23.16
2022-08-09T23:41:59.790Z,23.37
2022-08-09T23:44:45.337Z,23.09
2022-08-09T23:47:29.322Z,23.38
2022-08-09T23:50:13.482Z,23.20
2022-08-09T23:52:57.788Z,22.92
2022-08-09T23:55:48.345Z,23.15
2022-08-09T23:58:33.885Z,23.01
